sensor_id;sensor_type;location;lat;lon;timestamp;temperature;humidity
16273;DHT22;8244;50.044;9.006;2024-03-06T00:05:02;7.20;99.90
16273;DHT22;8244;50.044;9.006;2024-03-06T00:10:05;7.20;99.90
16273;DHT22;8244;50.044;9.006;2024-03-06T00:15:07;7.20;99.90
16273;DHT22;8244;50.044;9.006;2024-03-06T00:20:11;7.20;99.90
16273;DHT22;8244;50.044;9.006;2024-03-06T00:25:14;7.10;99.90
16273;DHT22;8244;50.044;9.006;2024-03-06T00:30:16;7.10;99.90
16273;DHT22;8244;50.044;9.006;2024-03-06T00:35:19;7.10;99.90
16273;DHT22;8244;50.044;9.006;2024-03-06T00:40:22;7.10;99.90
16273;DHT22;8244;50.044;9.006;2024-03-06T00:45:24;7.00;99.90
16273;DHT22;8244;50.044;9.006;2024-03-06T00:50:27;7.00;99.90
16273;DHT22;8244;50.044;9.006;2024-03-06T00:55:29;7.00;99.90
16273;DHT22;8244;50.044;9.006;2024-03-06T01:00:30;7.00;99.90
16273;DHT22;8244;50.044;9.006;2024-03-06T01:05:33;6.90;99.90
16273;DHT22;8244;50.044;9.006;2024-03-06T01:10:35;6.90;99.90
16273;DHT22;8244;50.044;9.006;2024-03-06T01:15:37;6.90;99.90
16273;DHT22;8244;50.044;9.006;2024-03-06T01:20:40;6.80;99.90
16273;DHT22;8244;50.044;9.006;2024-03-06T01:25:42;6.80;99.90
16273;DHT22;8244;50.044;9.006;2024-03-06T01:30:43;6.80;99.90
16273;DHT22;8244;50.044;9.006;2024-03-06T01:35:46;6.80;99.90
16273;DHT22;8244;50.044;9.006;2024-03-06T01:40:48;6.70;99.90
16273;DHT22;8244;50.044;9.006;2024-03-06T01:45:50;6.70;99.90
16273;DHT22;8244;50.044;9.006;2024-03-06T01:50:56;6.60;99.90
16273;DHT22;8244;50.044;9.006;2024-03-06T01:55:58;6.60;99.90
16273;DHT22;8244;50.044;9.006;2024-03-06T02:01:00;6.50;99.90
16273;DHT22;8244;50.044;9.006;2024-03-06T02:06:05;6.30;99.90
16273;DHT22;8244;50.044;9.006;2024-03-06T02:11:07;6.20;99.90
16273;DHT22;8244;50.044;9.006;2024-03-06T02:16:09;6.10;99.90
16273;DHT22;8244;50.044;9.006;2024-03-06T02:21:12;6.00;99.90
16273;DHT22;8244;50.044;9.006;2024-03-06T02:26:15;5.80;99.90
16273;DHT22;8244;50.044;9.006;2024-03-06T02:31:16;5.70;99.90
16273;DHT22;8244;50.044;9.006;2024-03-06T02:36:19;5.60;99.90
16273;DHT22;8244;50.044;9.006;2024-03-06T02:41:22;5.50;99.90
16273;DHT22;8244;50.044;9.006;2024-03-06T02:46:24;5.30;99.90
16273;DHT22;8244;50.044;9.006;2024-03-06T02:51:27;5.20;99.90
16273;DHT22;8244;50.044;9.006;2024-03-06T02:56:29;5.10;99.90
16273;DHT22;8244;50.044;9.006;2024-03-06T03:01:30;5.00;99.90
16273;DHT22;8244;50.044;9.006;2024-03-06T03:06:33;4.90;99.90
16273;DHT22;8244;50.044;9.006;2024-03-06T03:11:35;4.90;99.90
16273;DHT22;8244;50.044;9.006;2024-03-06T03:16:37;4.80;99.90
16273;DHT22;8244;50.044;9.006;2024-03-06T03:21:42;4.80;99.90
16273;DHT22;8244;50.044;9.006;2024-03-06T03:26:44;4.70;99.90
16273;DHT22;8244;50.044;9.006;2024-03-06T03:31:45;4.60;99.90
16273;DHT22;8244;50.044;9.006;2024-03-06T03:36:48;4.50;99.90
16273;DHT22;8244;50.044;9.006;2024-03-06T03:41:50;4.50;99.90
16273;DHT22;8244;50.044;9.006;2024-03-06T03:46:52;4.50;99.90
16273;DHT22;8244;50.044;9.006;2024-03-06T03:51:55;4.30;99.90
16273;DHT22;8244;50.044;9.006;2024-03-06T03:56:57;4.30;99.90
16273;DHT22;8244;50.044;9.006;2024-03-06T04:01:59;4.20;99.90
16273;DHT22;8244;50.044;9.006;2024-03-06T04:07:02;4.10;99.90
16273;DHT22;8244;50.044;9.006;2024-03-06T04:12:04;3.90;99.90
16273;DHT22;8244;50.044;9.006;2024-03-06T04:17:06;3.80;99.90
16273;DHT22;8244;50.044;9.006;2024-03-06T04:22:09;3.70;99.90
16273;DHT22;8244;50.044;9.006;2024-03-06T04:27:10;3.70;99.90
16273;DHT22;8244;50.044;9.006;2024-03-06T04:32:12;3.70;99.90
16273;DHT22;8244;50.044;9.006;2024-03-06T04:37:15;3.70;99.90
16273;DHT22;8244;50.044;9.006;2024-03-06T04:42:18;3.70;99.90
16273;DHT22;8244;50.044;9.006;2024-03-06T04:47:19;3.80;99.90
16273;DHT22;8244;50.044;9.006;2024-03-06T04:52:22;3.80;99.90
16273;DHT22;8244;50.044;9.006;2024-03-06T04:57:24;3.80;99.90
16273;DHT22;8244;50.044;9.006;2024-03-06T05:02:27;3.90;99.90
16273;DHT22;8244;50.044;9.006;2024-03-06T05:07:32;3.90;99.90
16273;DHT22;8244;50.044;9.006;2024-03-06T05:12:33;3.90;99.90
16273;DHT22;8244;50.044;9.006;2024-03-06T05:17:35;3.90;99.90
16273;DHT22;8244;50.044;9.006;2024-03-06T05:22:38;3.90;99.90
16273;DHT22;8244;50.044;9.006;2024-03-06T05:27:42;3.90;99.90
16273;DHT22;8244;50.044;9.006;2024-03-06T05:32:44;3.90;99.90
16273;DHT22;8244;50.044;9.006;2024-03-06T05:37:48;4.00;99.90
16273;DHT22;8244;50.044;9.006;2024-03-06T05:42:50;4.00;99.90
16273;DHT22;8244;50.044;9.006;2024-03-06T05:47:52;4.00;99.90
16273;DHT22;8244;50.044;9.006;2024-03-06T05:52:55;4.10;99.90
16273;DHT22;8244;50.044;9.006;2024-03-06T05:57:58;4.20;99.90
16273;DHT22;8244;50.044;9.006;2024-03-06T06:03:00;4.20;99.90
16273;DHT22;8244;50.044;9.006;2024-03-06T06:08:05;4.30;99.90
16273;DHT22;8244;50.044;9.006;2024-03-06T06:13:07;4.30;99.90
16273;DHT22;8244;50.044;9.006;2024-03-06T06:18:08;4.30;99.90
16273;DHT22;8244;50.044;9.006;2024-03-06T06:23:12;4.30;99.90
16273;DHT22;8244;50.044;9.006;2024-03-06T06:28:13;4.30;99.90
16273;DHT22;8244;50.044;9.006;2024-03-06T06:33:15;4.30;99.90
16273;DHT22;8244;50.044;9.006;2024-03-06T06:38:19;4.30;99.90
16273;DHT22;8244;50.044;9.006;2024-03-06T06:43:21;4.30;99.90
16273;DHT22;8244;50.044;9.006;2024-03-06T06:48:22;4.40;99.90
16273;DHT22;8244;50.044;9.006;2024-03-06T06:53:25;4.60;99.90
16273;DHT22;8244;50.044;9.006;2024-03-06T06:58:27;4.70;99.90
16273;DHT22;8244;50.044;9.006;2024-03-06T07:03:29;4.80;99.90
16273;DHT22;8244;50.044;9.006;2024-03-06T07:08:32;4.90;99.90
16273;DHT22;8244;50.044;9.006;2024-03-06T07:13:33;5.10;99.90
16273;DHT22;8244;50.044;9.006;2024-03-06T07:18:35;5.10;99.90
16273;DHT22;8244;50.044;9.006;2024-03-06T07:23:38;5.20;99.90
16273;DHT22;8244;50.044;9.006;2024-03-06T07:28:40;5.40;99.90
16273;DHT22;8244;50.044;9.006;2024-03-06T07:33:42;5.50;99.90
16273;DHT22;8244;50.044;9.006;2024-03-06T07:38:45;5.60;99.90
16273;DHT22;8244;50.044;9.006;2024-03-06T07:43:47;5.60;99.90
16273;DHT22;8244;50.044;9.006;2024-03-06T07:48:49;5.60;99.90
16273;DHT22;8244;50.044;9.006;2024-03-06T07:53:53;5.70;99.90
16273;DHT22;8244;50.044;9.006;2024-03-06T07:58:54;5.90;99.90
16273;DHT22;8244;50.044;9.006;2024-03-06T08:03:56;6.00;99.90
16273;DHT22;8244;50.044;9.006;2024-03-06T08:08:59;6.10;99.90
16273;DHT22;8244;50.044;9.006;2024-03-06T08:14:02;6.30;99.90
16273;DHT22;8244;50.044;9.006;2024-03-06T08:19:04;6.40;99.90
16273;DHT22;8244;50.044;9.006;2024-03-06T08:24:08;6.60;99.90
16273;DHT22;8244;50.044;9.006;2024-03-06T08:29:09;6.80;99.90
16273;DHT22;8244;50.044;9.006;2024-03-06T08:34:11;7.00;99.90
16273;DHT22;8244;50.044;9.006;2024-03-06T08:39:14;7.10;99.90
16273;DHT22;8244;50.044;9.006;2024-03-06T08:44:16;7.20;99.90
16273;DHT22;8244;50.044;9.006;2024-03-06T08:49:18;7.30;99.90
16273;DHT22;8244;50.044;9.006;2024-03-06T08:54:21;7.40;99.90
16273;DHT22;8244;50.044;9.006;2024-03-06T08:59:23;7.50;99.90
16273;DHT22;8244;50.044;9.006;2024-03-06T09:04:24;7.70;99.90
16273;DHT22;8244;50.044;9.006;2024-03-06T09:09:27;7.90;99.90
16273;DHT22;8244;50.044;9.006;2024-03-06T09:14:29;8.00;99.90
16273;DHT22;8244;50.044;9.006;2024-03-06T09:19:32;8.20;99.90
16273;DHT22;8244;50.044;9.006;2024-03-06T09:24:35;8.30;99.90
16273;DHT22;8244;50.044;9.006;2024-03-06T09:29:38;8.40;99.90
16273;DHT22;8244;50.044;9.006;2024-03-06T09:34:40;8.60;99.90
16273;DHT22;8244;50.044;9.006;2024-03-06T09:39:43;8.80;99.90
16273;DHT22;8244;50.044;9.006;2024-03-06T09:44:47;9.10;99.90
16273;DHT22;8244;50.044;9.006;2024-03-06T09:49:50;9.40;99.90
16273;DHT22;8244;50.044;9.006;2024-03-06T09:54:55;9.80;99.90
16273;DHT22;8244;50.044;9.006;2024-03-06T09:59:58;10.10;99.90
16273;DHT22;8244;50.044;9.006;2024-03-06T10:05:00;10.40;99.90
16273;DHT22;8244;50.044;9.006;2024-03-06T10:10:03;10.70;99.90
16273;DHT22;8244;50.044;9.006;2024-03-06T10:15:06;11.10;99.90
16273;DHT22;8244;50.044;9.006;2024-03-06T10:20:18;11.50;99.90
16273;DHT22;8244;50.044;9.006;2024-03-06T10:25:22;12.20;99.90
16273;DHT22;8244;50.044;9.006;2024-03-06T10:30:24;12.80;99.90
16273;DHT22;8244;50.044;9.006;2024-03-06T10:35:26;13.20;99.90
16273;DHT22;8244;50.044;9.006;2024-03-06T10:40:31;13.30;99.90
16273;DHT22;8244;50.044;9.006;2024-03-06T10:45:40;13.50;99.90
16273;DHT22;8244;50.044;9.006;2024-03-06T10:50:43;13.60;99.90
16273;DHT22;8244;50.044;9.006;2024-03-06T10:55:46;13.60;99.90
16273;DHT22;8244;50.044;9.006;2024-03-06T11:00:51;13.40;99.90
16273;DHT22;8244;50.044;9.006;2024-03-06T11:05:53;13.20;99.90
16273;DHT22;8244;50.044;9.006;2024-03-06T11:11:19;12.90;99.90
16273;DHT22;8244;50.044;9.006;2024-03-06T11:16:27;12.60;99.90
16273;DHT22;8244;50.044;9.006;2024-03-06T11:21:30;12.60;99.90
16273;DHT22;8244;50.044;9.006;2024-03-06T11:26:36;12.60;99.90
16273;DHT22;8244;50.044;9.006;2024-03-06T11:31:37;12.80;99.90
16273;DHT22;8244;50.044;9.006;2024-03-06T11:36:40;12.90;99.90
16273;DHT22;8244;50.044;9.006;2024-03-06T11:41:48;13.10;99.90
16273;DHT22;8244;50.044;9.006;2024-03-06T11:46:57;13.20;99.90
16273;DHT22;8244;50.044;9.006;2024-03-06T11:52:00;13.30;99.90
16273;DHT22;8244;50.044;9.006;2024-03-06T11:57:05;13.20;99.90
16273;DHT22;8244;50.044;9.006;2024-03-06T12:02:07;13.00;99.90
16273;DHT22;8244;50.044;9.006;2024-03-06T12:07:10;12.90;99.90
16273;DHT22;8244;50.044;9.006;2024-03-06T12:12:13;13.20;99.90
16273;DHT22;8244;50.044;9.006;2024-03-06T12:17:15;13.50;99.90
16273;DHT22;8244;50.044;9.006;2024-03-06T12:22:17;13.70;99.90
16273;DHT22;8244;50.044;9.006;2024-03-06T12:27:22;13.90;99.90
16273;DHT22;8244;50.044;9.006;2024-03-06T12:32:27;14.10;99.90
16273;DHT22;8244;50.044;9.006;2024-03-06T12:37:30;14.30;99.90
16273;DHT22;8244;50.044;9.006;2024-03-06T12:42:34;14.40;99.90
16273;DHT22;8244;50.044;9.006;2024-03-06T12:47:35;14.50;99.90
16273;DHT22;8244;50.044;9.006;2024-03-06T12:52:38;14.60;99.90
16273;DHT22;8244;50.044;9.006;2024-03-06T12:57:41;14.60;99.90
16273;DHT22;8244;50.044;9.006;2024-03-06T13:02:44;14.80;99.90
16273;DHT22;8244;50.044;9.006;2024-03-06T13:07:46;15.00;99.90
16273;DHT22;8244;50.044;9.006;2024-03-06T13:12:49;15.10;99.90
16273;DHT22;8244;50.044;9.006;2024-03-06T13:17:54;15.00;99.90
16273;DHT22;8244;50.044;9.006;2024-03-06T13:22:56;15.00;99.90
16273;DHT22;8244;50.044;9.006;2024-03-06T13:27:59;15.20;99.90
16273;DHT22;8244;50.044;9.006;2024-03-06T13:33:01;15.20;99.90
16273;DHT22;8244;50.044;9.006;2024-03-06T13:38:03;15.10;99.90
16273;DHT22;8244;50.044;9.006;2024-03-06T13:43:06;15.20;99.90
16273;DHT22;8244;50.044;9.006;2024-03-06T13:48:14;15.30;99.90
16273;DHT22;8244;50.044;9.006;2024-03-06T13:53:16;15.30;99.90
16273;DHT22;8244;50.044;9.006;2024-03-06T13:58:20;15.10;99.90
16273;DHT22;8244;50.044;9.006;2024-03-06T14:03:21;15.00;99.90
16273;DHT22;8244;50.044;9.006;2024-03-06T14:08:24;14.80;99.90
16273;DHT22;8244;50.044;9.006;2024-03-06T14:13:27;14.50;99.90
16273;DHT22;8244;50.044;9.006;2024-03-06T14:18:29;14.40;99.90
16273;DHT22;8244;50.044;9.006;2024-03-06T14:23:31;14.20;99.90
16273;DHT22;8244;50.044;9.006;2024-03-06T14:28:35;14.10;99.90
16273;DHT22;8244;50.044;9.006;2024-03-06T14:33:39;14.00;99.90
16273;DHT22;8244;50.044;9.006;2024-03-06T14:38:41;13.90;99.90
16273;DHT22;8244;50.044;9.006;2024-03-06T14:43:46;13.90;99.90
16273;DHT22;8244;50.044;9.006;2024-03-06T14:48:47;13.90;99.90
16273;DHT22;8244;50.044;9.006;2024-03-06T14:53:49;13.90;99.90
16273;DHT22;8244;50.044;9.006;2024-03-06T14:58:52;13.90;99.90
16273;DHT22;8244;50.044;9.006;2024-03-06T15:03:54;13.80;99.90
16273;DHT22;8244;50.044;9.006;2024-03-06T15:08:56;13.70;99.90
16273;DHT22;8244;50.044;9.006;2024-03-06T15:13:59;13.50;99.90
16273;DHT22;8244;50.044;9.006;2024-03-06T15:19:00;13.40;99.90
16273;DHT22;8244;50.044;9.006;2024-03-06T15:24:04;13.40;99.90
16273;DHT22;8244;50.044;9.006;2024-03-06T15:29:07;13.30;99.90
16273;DHT22;8244;50.044;9.006;2024-03-06T15:34:10;13.20;99.90
16273;DHT22;8244;50.044;9.006;2024-03-06T15:39:12;13.20;99.90
16273;DHT22;8244;50.044;9.006;2024-03-06T15:44:15;13.10;99.90
16273;DHT22;8244;50.044;9.006;2024-03-06T15:49:22;13.10;99.90
16273;DHT22;8244;50.044;9.006;2024-03-06T15:54:25;13.00;99.90
16273;DHT22;8244;50.044;9.006;2024-03-06T15:59:28;12.70;99.90
16273;DHT22;8244;50.044;9.006;2024-03-06T16:04:29;12.60;99.90
16273;DHT22;8244;50.044;9.006;2024-03-06T16:09:31;12.50;99.90
16273;DHT22;8244;50.044;9.006;2024-03-06T16:14:35;12.40;99.90
16273;DHT22;8244;50.044;9.006;2024-03-06T16:19:37;12.30;99.90
16273;DHT22;8244;50.044;9.006;2024-03-06T16:24:39;12.30;99.90
16273;DHT22;8244;50.044;9.006;2024-03-06T16:29:42;12.20;99.90
16273;DHT22;8244;50.044;9.006;2024-03-06T16:34:44;12.10;99.90
16273;DHT22;8244;50.044;9.006;2024-03-06T16:39:47;11.90;99.90
16273;DHT22;8244;50.044;9.006;2024-03-06T16:44:51;11.90;99.90
16273;DHT22;8244;50.044;9.006;2024-03-06T16:49:53;11.80;99.90
16273;DHT22;8244;50.044;9.006;2024-03-06T16:54:55;11.70;99.90
16273;DHT22;8244;50.044;9.006;2024-03-06T16:59:58;11.60;99.90
16273;DHT22;8244;50.044;9.006;2024-03-06T17:04:59;11.40;99.90
16273;DHT22;8244;50.044;9.006;2024-03-06T17:10:01;11.30;99.90
16273;DHT22;8244;50.044;9.006;2024-03-06T17:15:05;11.10;99.90
16273;DHT22;8244;50.044;9.006;2024-03-06T17:20:08;11.00;99.90
16273;DHT22;8244;50.044;9.006;2024-03-06T17:25:10;10.90;99.90
16273;DHT22;8244;50.044;9.006;2024-03-06T17:30:13;10.80;99.90
16273;DHT22;8244;50.044;9.006;2024-03-06T17:35:15;10.70;99.90
16273;DHT22;8244;50.044;9.006;2024-03-06T17:40:17;10.50;99.90
16273;DHT22;8244;50.044;9.006;2024-03-06T17:45:21;10.40;99.90
16273;DHT22;8244;50.044;9.006;2024-03-06T17:50:22;10.20;99.90
16273;DHT22;8244;50.044;9.006;2024-03-06T17:55:24;10.00;99.90
16273;DHT22;8244;50.044;9.006;2024-03-06T18:00:28;9.90;99.90
16273;DHT22;8244;50.044;9.006;2024-03-06T18:05:29;9.70;99.90
16273;DHT22;8244;50.044;9.006;2024-03-06T18:10:31;9.50;99.90
16273;DHT22;8244;50.044;9.006;2024-03-06T18:15:34;9.30;99.90
16273;DHT22;8244;50.044;9.006;2024-03-06T18:20:36;9.10;99.90
16273;DHT22;8244;50.044;9.006;2024-03-06T18:25:38;9.00;99.90
16273;DHT22;8244;50.044;9.006;2024-03-06T18:30:41;8.80;99.90
16273;DHT22;8244;50.044;9.006;2024-03-06T18:35:43;8.70;99.90
16273;DHT22;8244;50.044;9.006;2024-03-06T18:40:44;8.50;99.90
16273;DHT22;8244;50.044;9.006;2024-03-06T18:45:47;8.40;99.90
16273;DHT22;8244;50.044;9.006;2024-03-06T18:50:49;8.30;99.90
16273;DHT22;8244;50.044;9.006;2024-03-06T18:55:51;8.10;99.90
16273;DHT22;8244;50.044;9.006;2024-03-06T19:00:54;8.00;99.90
16273;DHT22;8244;50.044;9.006;2024-03-06T19:05:56;7.90;99.90
16273;DHT22;8244;50.044;9.006;2024-03-06T19:10:57;7.80;99.90
16273;DHT22;8244;50.044;9.006;2024-03-06T19:16:01;7.60;99.90
16273;DHT22;8244;50.044;9.006;2024-03-06T19:21:03;7.50;99.90
16273;DHT22;8244;50.044;9.006;2024-03-06T19:26:05;7.40;99.90
16273;DHT22;8244;50.044;9.006;2024-03-06T19:31:08;7.40;99.90
16273;DHT22;8244;50.044;9.006;2024-03-06T19:36:09;7.30;99.90
16273;DHT22;8244;50.044;9.006;2024-03-06T19:41:11;7.30;99.90
16273;DHT22;8244;50.044;9.006;2024-03-06T19:46:14;7.30;99.90
16273;DHT22;8244;50.044;9.006;2024-03-06T19:51:16;7.20;99.90
16273;DHT22;8244;50.044;9.006;2024-03-06T19:56:17;7.20;99.90
16273;DHT22;8244;50.044;9.006;2024-03-06T20:01:21;7.20;99.90
16273;DHT22;8244;50.044;9.006;2024-03-06T20:06:23;7.20;99.90
16273;DHT22;8244;50.044;9.006;2024-03-06T20:11:27;7.10;99.90
16273;DHT22;8244;50.044;9.006;2024-03-06T20:16:30;7.20;99.90
16273;DHT22;8244;50.044;9.006;2024-03-06T20:21:33;7.20;99.90
16273;DHT22;8244;50.044;9.006;2024-03-06T20:26:36;7.20;99.90
16273;DHT22;8244;50.044;9.006;2024-03-06T20:31:42;7.20;99.90
16273;DHT22;8244;50.044;9.006;2024-03-06T20:36:44;7.10;99.90
16273;DHT22;8244;50.044;9.006;2024-03-06T20:41:46;7.10;99.90
16273;DHT22;8244;50.044;9.006;2024-03-06T20:46:49;7.00;99.90
16273;DHT22;8244;50.044;9.006;2024-03-06T20:51:51;6.80;99.90
16273;DHT22;8244;50.044;9.006;2024-03-06T20:56:53;6.80;99.90
16273;DHT22;8244;50.044;9.006;2024-03-06T21:01:56;6.70;99.90
16273;DHT22;8244;50.044;9.006;2024-03-06T21:06:57;6.60;99.90
16273;DHT22;8244;50.044;9.006;2024-03-06T21:11:59;6.60;99.90
16273;DHT22;8244;50.044;9.006;2024-03-06T21:17:02;6.50;99.90
16273;DHT22;8244;50.044;9.006;2024-03-06T21:22:06;6.50;99.90
16273;DHT22;8244;50.044;9.006;2024-03-06T21:27:09;6.50;99.90
16273;DHT22;8244;50.044;9.006;2024-03-06T21:32:12;6.50;99.90
16273;DHT22;8244;50.044;9.006;2024-03-06T21:37:14;6.50;99.90
16273;DHT22;8244;50.044;9.006;2024-03-06T21:42:16;6.40;99.90
16273;DHT22;8244;50.044;9.006;2024-03-06T21:47:21;6.40;99.90
16273;DHT22;8244;50.044;9.006;2024-03-06T21:52:22;6.40;99.90
16273;DHT22;8244;50.044;9.006;2024-03-06T21:57:24;6.40;99.90
16273;DHT22;8244;50.044;9.006;2024-03-06T22:02:28;6.40;99.90
16273;DHT22;8244;50.044;9.006;2024-03-06T22:07:30;6.30;99.90
16273;DHT22;8244;50.044;9.006;2024-03-06T22:12:31;6.30;99.90
16273;DHT22;8244;50.044;9.006;2024-03-06T22:17:34;6.30;99.90
16273;DHT22;8244;50.044;9.006;2024-03-06T22:22:37;6.30;99.90
16273;DHT22;8244;50.044;9.006;2024-03-06T22:27:38;6.20;99.90
16273;DHT22;8244;50.044;9.006;2024-03-06T22:32:41;6.10;99.90
16273;DHT22;8244;50.044;9.006;2024-03-06T22:37:43;6.00;99.90
16273;DHT22;8244;50.044;9.006;2024-03-06T22:42:45;5.80;99.90
16273;DHT22;8244;50.044;9.006;2024-03-06T22:47:48;5.70;99.90
16273;DHT22;8244;50.044;9.006;2024-03-06T22:52:50;5.60;99.90
16273;DHT22;8244;50.044;9.006;2024-03-06T22:57:53;5.40;99.90
16273;DHT22;8244;50.044;9.006;2024-03-06T23:03:00;5.30;99.90
16273;DHT22;8244;50.044;9.006;2024-03-06T23:08:03;5.20;99.90
16273;DHT22;8244;50.044;9.006;2024-03-06T23:13:05;5.10;99.90
16273;DHT22;8244;50.044;9.006;2024-03-06T23:18:09;4.90;99.90
16273;DHT22;8244;50.044;9.006;2024-03-06T23:23:11;4.80;99.90
16273;DHT22;8244;50.044;9.006;2024-03-06T23:28:13;4.70;99.90
16273;DHT22;8244;50.044;9.006;2024-03-06T23:33:16;4.60;99.90
16273;DHT22;8244;50.044;9.006;2024-03-06T23:38:17;4.50;99.90
16273;DHT22;8244;50.044;9.006;2024-03-06T23:43:19;4.40;99.90
16273;DHT22;8244;50.044;9.006;2024-03-06T23:48:22;4.40;99.90
16273;DHT22;8244;50.044;9.006;2024-03-06T23:53:24;4.20;99.90
16273;DHT22;8244;50.044;9.006;2024-03-06T23:58:26;4.10;99.90
